createdAt,value
2023-05-21T00:01:23.875Z,32.97
2023-05-21T00:03:27.325Z,32.85
2023-05-21T00:05:28.850Z,32.88
2023-05-21T00:07:31.532Z,33.11
2023-05-21T00:09:33.248Z,32.97
2023-05-21T00:11:34.778Z,32.96
2023-05-21T00:13:36.333Z,33.04
2023-05-21T00:15:38.304Z,33.25
2023-05-21T00:17:40.080Z,33.38
2023-05-21T00:19:41.725Z,33.23
2023-05-21T00:21:46.009Z,33.14
2023-05-21T00:23:48.154Z,32.98
2023-05-21T00:25:50.475Z,33.04
2023-05-21T00:27:52.075Z,33.06
2023-05-21T00:29:53.649Z,33.10
2023-05-21T00:31:55.910Z,33.07
2023-05-21T00:33:57.942Z,33.06
2023-05-21T00:35:59.492Z,33.11
2023-05-21T00:38:01.070Z,33.06
2023-05-21T00:40:05.293Z,33.25
2023-05-21T00:42:07.149Z,33.07
2023-05-21T00:44:09.046Z,33.11
2023-05-21T00:46:12.196Z,32.98
2023-05-21T00:48:14.779Z,33.24
2023-05-21T00:50:16.367Z,33.16
2023-05-21T00:52:20.294Z,33.16
2023-05-21T00:54:21.945Z,33.24
2023-05-21T00:56:24.178Z,33.05
2023-05-21T00:58:26.042Z,33.19
2023-05-21T01:00:28.244Z,33.12
2023-05-21T01:02:33.073Z,33.13
2023-05-21T01:04:34.769Z,33.14
2023-05-21T01:06:36.480Z,33.18
2023-05-21T01:08:38.638Z,33.08
2023-05-21T01:10:40.390Z,33.23
2023-05-21T01:12:43.595Z,33.20
2023-05-21T01:14:45.318Z,33.31
2023-05-21T01:16:48.434Z,33.09
2023-05-21T01:18:50.169Z,33.07
2023-05-21T01:20:52.455Z,33.20
2023-05-21T01:22:55.115Z,33.20
2023-05-21T01:24:56.767Z,33.33
2023-05-21T01:26:59.635Z,33.48
2023-05-21T01:29:01.451Z,33.39
2023-05-21T01:31:06.642Z,33.45
2023-05-21T01:33:20.320Z,33.27
2023-05-21T01:35:24.629Z,33.32
2023-05-21T01:37:37.532Z,33.29
2023-05-21T01:39:42.538Z,33.38
2023-05-21T01:41:46.064Z,33.24
2023-05-21T01:43:48.025Z,33.18
2023-05-21T01:45:53.201Z,33.22
2023-05-21T01:47:56.018Z,33.55
2023-05-21T01:49:58.119Z,33.44
2023-05-21T01:51:59.750Z,33.51
2023-05-21T01:54:01.568Z,33.38
2023-05-21T01:56:03.144Z,33.31
2023-05-21T01:58:04.815Z,33.51
2023-05-21T02:00:07.544Z,33.65
2023-05-21T02:02:09.274Z,33.41
2023-05-21T02:04:11.031Z,33.40
2023-05-21T02:06:12.591Z,33.35
2023-05-21T02:08:15.264Z,33.57
2023-05-21T02:10:17.296Z,33.51
2023-05-21T02:12:19.010Z,33.69
2023-05-21T02:14:20.684Z,33.78
2023-05-21T02:16:22.544Z,33.54
2023-05-21T02:18:24.492Z,33.63
2023-05-21T02:20:26.557Z,33.52
2023-05-21T02:22:28.058Z,33.57
2023-05-21T02:24:29.496Z,33.56
2023-05-21T02:26:31.323Z,33.63
2023-05-21T02:28:33.918Z,33.43
2023-05-21T02:30:35.364Z,33.63
2023-05-21T02:32:37.099Z,33.27
2023-05-21T02:34:42.352Z,33.64
2023-05-21T02:36:43.946Z,33.39
2023-05-21T02:38:45.401Z,33.54
2023-05-21T02:40:46.987Z,33.59
2023-05-21T02:42:48.431Z,33.63
2023-05-21T02:44:51.122Z,33.55
2023-05-21T02:46:52.681Z,33.63
2023-05-21T02:48:54.167Z,33.65
2023-05-21T02:50:55.702Z,33.54
2023-05-21T02:52:57.306Z,33.52
2023-05-21T02:54:58.882Z,33.54
2023-05-21T02:57:01.101Z,33.55
2023-05-21T02:59:02.596Z,33.45
2023-05-21T03:01:04.151Z,33.45
2023-05-21T03:03:05.725Z,33.66
2023-05-21T03:05:07.580Z,33.47
2023-05-21T03:07:10.106Z,33.87
2023-05-21T03:09:11.617Z,33.96
2023-05-21T03:11:13.076Z,33.71
2023-05-21T03:13:14.611Z,33.83
2023-05-21T03:15:16.125Z,33.71
2023-05-21T03:17:18.153Z,34.09
2023-05-21T03:19:20.836Z,33.84
2023-05-21T03:21:22.692Z,33.83
2023-05-21T03:23:24.265Z,33.93
2023-05-21T03:25:25.853Z,33.83
2023-05-21T03:27:27.616Z,33.86
2023-05-21T03:29:29.129Z,33.86
2023-05-21T03:31:30.896Z,34.01
2023-05-21T03:33:32.385Z,34.01
2023-05-21T03:35:34.052Z,33.81
2023-05-21T03:37:35.801Z,33.96
2023-05-21T03:39:37.235Z,33.91
2023-05-21T03:41:38.794Z,33.80
2023-05-21T03:43:40.624Z,33.87
2023-05-21T03:45:44.305Z,33.99
2023-05-21T03:47:46.461Z,34.05
2023-05-21T03:49:47.980Z,33.91
2023-05-21T03:51:49.673Z,33.88
2023-05-21T03:53:51.566Z,34.04
2023-05-21T03:55:55.339Z,33.82
2023-05-21T03:57:57.082Z,33.93
2023-05-21T03:59:59.037Z,33.85
2023-05-21T04:02:00.861Z,33.95
2023-05-21T04:04:02.457Z,34.00
2023-05-21T04:06:04.440Z,34.02
2023-05-21T04:08:06.829Z,33.86
2023-05-21T04:10:08.877Z,34.02
2023-05-21T04:12:10.461Z,34.14
2023-05-21T04:14:12.079Z,33.94
2023-05-21T04:16:14.839Z,34.02
2023-05-21T04:18:17.134Z,33.81
2023-05-21T04:20:18.668Z,33.96
2023-05-21T04:22:20.208Z,33.98
2023-05-21T04:24:22.633Z,33.88
2023-05-21T04:26:25.304Z,33.95
2023-05-21T04:28:28.876Z,33.92
2023-05-21T04:30:30.658Z,34.16
2023-05-21T04:32:33.326Z,34.13
2023-05-21T04:34:34.825Z,34.06
2023-05-21T04:36:36.295Z,34.15
2023-05-21T04:38:38.592Z,34.06
2023-05-21T04:40:40.608Z,34.05
2023-05-21T04:42:42.304Z,34.13
2023-05-21T04:44:44.362Z,33.94
2023-05-21T04:46:46.267Z,34.04
2023-05-21T04:48:50.929Z,34.02
2023-05-21T04:50:53.511Z,34.21
2023-05-21T04:52:55.024Z,33.92
2023-05-21T04:54:57.177Z,34.06
2023-05-21T04:56:58.779Z,34.22
2023-05-21T04:59:00.585Z,34.17
2023-05-21T05:01:04.106Z,33.83
2023-05-21T05:03:05.910Z,34.09
2023-05-21T05:05:07.712Z,34.01
2023-05-21T05:07:09.793Z,34.01
2023-05-21T05:09:11.249Z,33.91
2023-05-21T05:11:13.196Z,34.09
2023-05-21T05:13:14.677Z,33.98
2023-05-21T05:15:16.232Z,34.17
2023-05-21T05:17:18.737Z,34.09
2023-05-21T05:19:20.521Z,33.97
2023-05-21T05:21:22.480Z,34.02
2023-05-21T05:23:24.100Z,34.23
2023-05-21T05:25:25.553Z,34.02
2023-05-21T05:27:26.972Z,34.11
2023-05-21T05:29:28.496Z,34.11
2023-05-21T05:31:30.112Z,34.01
2023-05-21T05:33:31.633Z,34.00
2023-05-21T05:35:33.066Z,34.10
2023-05-21T05:37:34.695Z,34.00
2023-05-21T05:39:36.209Z,34.09
2023-05-21T05:41:37.688Z,34.16
2023-05-21T05:43:39.269Z,34.09
2023-05-21T05:45:40.865Z,34.21
2023-05-21T05:47:42.362Z,34.15
2023-05-21T05:49:44.015Z,34.34
2023-05-21T05:51:45.672Z,34.28
2023-05-21T05:53:47.585Z,34.11
2023-05-21T05:55:49.153Z,34.17
2023-05-21T05:57:50.993Z,34.23
2023-05-21T05:59:52.455Z,34.30
2023-05-21T06:01:53.972Z,34.24
2023-05-21T06:03:57.354Z,34.25
2023-05-21T06:05:58.938Z,34.18
2023-05-21T06:08:00.463Z,34.22
2023-05-21T06:10:01.932Z,34.29
2023-05-21T06:12:03.483Z,34.44
2023-05-21T06:14:05.017Z,34.44
2023-05-21T06:16:07.565Z,34.54
2023-05-21T06:18:09.291Z,34.25
2023-05-21T06:20:11.325Z,34.26
2023-05-21T06:22:12.794Z,34.30
2023-05-21T06:24:14.344Z,34.35
2023-05-21T06:26:15.929Z,34.44
2023-05-21T06:28:17.891Z,34.64
2023-05-21T06:30:19.464Z,34.36
2023-05-21T06:32:24.076Z,34.97
2023-05-21T06:34:25.834Z,34.54
2023-05-21T06:36:29.880Z,34.50
2023-05-21T06:38:31.484Z,34.58
2023-05-21T06:40:34.137Z,34.57
2023-05-21T06:42:35.938Z,34.66
2023-05-21T06:44:37.536Z,34.71
2023-05-21T06:46:39.193Z,34.77
2023-05-21T06:48:40.672Z,34.77
2023-05-21T06:50:42.418Z,34.73
2023-05-21T06:52:43.901Z,34.73
2023-05-21T06:54:45.877Z,34.71
2023-05-21T06:56:47.602Z,34.79
2023-05-21T06:58:49.101Z,34.72
2023-05-21T07:00:50.706Z,34.74
2023-05-21T07:02:52.343Z,34.86
2023-05-21T07:04:55.671Z,34.62
2023-05-21T07:06:57.215Z,34.78
2023-05-21T07:08:58.821Z,34.80
2023-05-21T07:11:00.585Z,34.80
2023-05-21T07:13:02.053Z,34.77
2023-05-21T07:15:03.745Z,34.77
2023-05-21T07:17:05.292Z,34.72
2023-05-21T07:19:07.187Z,34.81
2023-05-21T07:21:09.084Z,34.90
2023-05-21T07:23:10.733Z,34.78
2023-05-21T07:25:12.171Z,34.77
2023-05-21T07:27:24.849Z,35.08
2023-05-21T07:29:27.528Z,34.85
2023-05-21T07:31:29.025Z,35.01
2023-05-21T07:33:30.706Z,35.12
2023-05-21T07:35:32.308Z,35.14
2023-05-21T07:37:33.824Z,35.18
2023-05-21T07:39:35.560Z,34.92
2023-05-21T07:41:37.156Z,34.90
2023-05-21T07:43:38.730Z,35.05
2023-05-21T07:45:40.173Z,34.98
2023-05-21T07:47:42.818Z,34.99
2023-05-21T07:49:44.349Z,35.00
2023-05-21T07:51:46.132Z,35.02
2023-05-21T07:53:47.685Z,35.01
2023-05-21T07:55:49.159Z,35.06
2023-05-21T07:57:52.326Z,35.10
2023-05-21T07:59:53.923Z,35.08
2023-05-21T08:01:55.729Z,35.31
2023-05-21T08:03:57.344Z,35.28
2023-05-21T08:05:58.878Z,35.30
2023-05-21T08:08:00.679Z,35.19
2023-05-21T08:10:02.937Z,35.18
2023-05-21T08:12:04.752Z,35.28
2023-05-21T08:14:06.623Z,35.30
2023-05-21T08:16:08.235Z,35.07
2023-05-21T08:18:10.244Z,35.30
2023-05-21T08:20:13.439Z,35.26
2023-05-21T08:22:14.977Z,35.51
2023-05-21T08:24:16.966Z,35.37
2023-05-21T08:26:18.520Z,35.34
2023-05-21T08:28:22.014Z,35.41
2023-05-21T08:30:23.542Z,35.27
2023-05-21T08:32:25.085Z,35.27
2023-05-21T08:34:26.746Z,35.23
2023-05-21T08:36:28.271Z,35.28
2023-05-21T08:38:30.475Z,35.10
2023-05-21T08:40:32.204Z,35.11
2023-05-21T08:42:40.473Z,35.23
2023-05-21T08:44:44.443Z,35.00
2023-05-21T08:46:49.632Z,35.25
2023-05-21T08:48:51.493Z,35.07
2023-05-21T08:50:53.744Z,34.95
2023-05-21T08:52:55.422Z,34.77
2023-05-21T08:54:56.996Z,35.00
2023-05-21T08:56:59.533Z,34.85
2023-05-21T08:59:02.157Z,34.76
2023-05-21T09:01:04.641Z,34.91
2023-05-21T09:03:07.797Z,34.67
2023-05-21T09:05:09.607Z,34.60
2023-05-21T09:07:11.200Z,34.60
2023-05-21T09:09:21.925Z,34.68
2023-05-21T09:11:23.524Z,34.55
2023-05-21T09:13:25.151Z,34.59
2023-05-21T09:15:26.936Z,34.74
2023-05-21T09:17:28.450Z,34.81
2023-05-21T09:19:32.085Z,34.79
2023-05-21T09:21:33.913Z,34.93
2023-05-21T09:23:35.611Z,34.87
2023-05-21T09:25:37.902Z,34.78
2023-05-21T09:27:39.967Z,34.80
2023-05-21T09:29:42.089Z,35.02
2023-05-21T09:31:44.941Z,34.79
2023-05-21T09:33:48.086Z,34.84
2023-05-21T09:35:50.082Z,35.08
2023-05-21T09:37:52.464Z,35.08
2023-05-21T09:39:54.003Z,34.81
2023-05-21T09:41:58.534Z,34.92
2023-05-21T09:44:01.218Z,34.92
2023-05-21T09:46:03.075Z,34.92
2023-05-21T09:48:04.734Z,34.96
2023-05-21T09:50:06.730Z,34.90
2023-05-21T09:52:08.446Z,34.98
2023-05-21T09:54:10.908Z,35.10
2023-05-21T09:56:12.480Z,35.03
2023-05-21T09:58:14.070Z,35.10
2023-05-21T10:00:23.116Z,35.15
2023-05-21T10:02:26.705Z,35.08
2023-05-21T10:04:31.646Z,34.98
2023-05-21T10:06:35.486Z,35.18
2023-05-21T10:08:43.026Z,34.97
2023-05-21T10:10:47.665Z,35.23
2023-05-21T10:12:53.735Z,35.30
2023-05-21T10:15:00.154Z,35.17
2023-05-21T10:17:02.122Z,34.93
2023-05-21T10:19:05.317Z,34.89
2023-05-21T10:21:08.667Z,35.14
2023-05-21T10:23:10.482Z,34.99
2023-05-21T10:25:13.012Z,35.08
2023-05-21T10:27:14.549Z,35.03
2023-05-21T10:29:18.148Z,35.04
2023-05-21T10:31:21.191Z,35.12
2023-05-21T10:33:23.131Z,35.04
2023-05-21T10:35:24.665Z,35.11
2023-05-21T10:37:27.461Z,35.00
2023-05-21T10:39:29.776Z,35.14
2023-05-21T10:41:35.805Z,35.08
2023-05-21T10:43:55.822Z,35.19
2023-05-21T10:46:07.766Z,35.00
2023-05-21T10:48:09.768Z,35.01
2023-05-21T10:50:11.292Z,35.06
2023-05-21T10:52:34.666Z,34.97
2023-05-21T10:54:54.793Z,35.03
2023-05-21T10:57:15.545Z,34.92
2023-05-21T10:59:22.330Z,34.97
2023-05-21T11:01:27.085Z,35.05
2023-05-21T11:03:30.122Z,35.02
2023-05-21T11:05:51.094Z,34.78
2023-05-21T11:07:56.892Z,35.03
2023-05-21T11:10:18.389Z,34.71
2023-05-21T11:12:23.142Z,34.68
2023-05-21T11:14:38.216Z,34.83
2023-05-21T11:16:45.525Z,34.71
2023-05-21T11:18:47.031Z,34.79
2023-05-21T11:20:52.000Z,34.79
2023-05-21T11:22:53.481Z,34.85
2023-05-21T11:24:55.750Z,34.74
2023-05-21T11:26:58.644Z,34.84
2023-05-21T11:29:06.189Z,34.77
2023-05-21T11:31:23.144Z,34.89
2023-05-21T11:33:24.618Z,34.90
2023-05-21T11:35:27.167Z,34.71
2023-05-21T11:37:33.351Z,34.63
2023-05-21T11:39:40.236Z,34.74
2023-05-21T11:41:58.323Z,34.55
2023-05-21T11:44:03.098Z,34.49
2023-05-21T11:46:04.728Z,34.70
2023-05-21T11:48:06.875Z,34.61
2023-05-21T11:50:12.304Z,34.62
2023-05-21T11:52:14.081Z,34.55
2023-05-21T11:54:17.773Z,34.58
2023-05-21T11:56:20.457Z,34.56
2023-05-21T11:58:22.154Z,34.43
2023-05-21T12:00:23.873Z,34.76
2023-05-21T12:02:32.103Z,34.70
2023-05-21T12:04:37.053Z,34.71
2023-05-21T12:06:42.588Z,34.60
2023-05-21T12:08:45.429Z,34.64
2023-05-21T12:10:47.144Z,34.72
2023-05-21T12:12:55.713Z,34.51
2023-05-21T12:14:58.678Z,34.52
2023-05-21T12:17:00.230Z,34.51
2023-05-21T12:19:04.737Z,34.73
2023-05-21T12:21:08.961Z,34.76
2023-05-21T12:23:20.916Z,34.78
2023-05-21T12:25:22.782Z,34.68
2023-05-21T12:27:24.497Z,34.66
2023-05-21T12:29:26.901Z,34.42
2023-05-21T12:31:30.084Z,34.51
2023-05-21T12:33:34.841Z,34.62
2023-05-21T12:35:37.168Z,34.64
2023-05-21T12:37:38.710Z,34.73
2023-05-21T12:39:41.332Z,34.38
2023-05-21T12:41:43.772Z,34.58
2023-05-21T12:43:45.631Z,34.66
2023-05-21T12:45:47.195Z,34.53
2023-05-21T12:47:50.450Z,34.77
2023-05-21T12:49:55.509Z,34.56
2023-05-21T12:51:57.352Z,34.69
2023-05-21T12:53:58.865Z,34.73
2023-05-21T12:56:09.982Z,34.61
2023-05-21T12:58:13.576Z,34.59
2023-05-21T13:00:15.068Z,34.60
2023-05-21T13:02:21.276Z,34.58
2023-05-21T13:04:24.221Z,34.74
2023-05-21T13:06:26.369Z,34.67
2023-05-21T13:08:28.436Z,34.64
2023-05-21T13:10:29.968Z,34.66
2023-05-21T13:12:35.473Z,34.76
2023-05-21T13:14:37.066Z,34.89
2023-05-21T13:16:38.597Z,34.71
2023-05-21T13:18:40.100Z,34.58
2023-05-21T13:20:41.585Z,34.68
2023-05-21T13:22:46.421Z,34.52
2023-05-21T13:24:48.100Z,34.83
2023-05-21T13:26:49.695Z,34.76
2023-05-21T13:28:51.141Z,34.56
2023-05-21T13:30:54.933Z,34.56
2023-05-21T13:32:56.747Z,34.59
2023-05-21T13:34:58.388Z,34.66
2023-05-21T13:36:59.840Z,34.65
2023-05-21T13:39:01.303Z,34.54
2023-05-21T13:41:02.899Z,34.58
2023-05-21T13:43:04.401Z,34.63
2023-05-21T13:45:07.038Z,34.65
2023-05-21T13:47:10.124Z,34.64
2023-05-21T13:49:11.587Z,34.68
2023-05-21T13:51:17.577Z,34.57
2023-05-21T13:53:24.152Z,34.46
2023-05-21T13:55:25.632Z,34.60
2023-05-21T13:57:27.280Z,34.67
2023-05-21T13:59:30.695Z,34.50
2023-05-21T14:01:33.505Z,34.54
2023-05-21T14:03:35.175Z,34.53
2023-05-21T14:05:36.793Z,34.30
2023-05-21T14:07:39.854Z,34.56
2023-05-21T14:09:42.244Z,34.49
2023-05-21T14:11:43.775Z,34.45
2023-05-21T14:13:45.218Z,34.35
2023-05-21T14:15:46.719Z,34.77
2023-05-21T14:17:48.374Z,34.27
2023-05-21T14:19:49.904Z,34.10
2023-05-21T14:21:52.281Z,34.07
2023-05-21T14:23:53.846Z,34.06
2023-05-21T14:25:55.537Z,34.12
2023-05-21T14:27:57.213Z,34.05
2023-05-21T14:29:58.667Z,33.83
2023-05-21T14:32:00.253Z,34.16
2023-05-21T14:34:03.071Z,33.89
2023-05-21T14:36:05.003Z,34.33
2023-05-21T14:38:06.556Z,34.24
2023-05-21T14:40:08.361Z,34.30
2023-05-21T14:42:09.825Z,34.38
2023-05-21T14:44:11.420Z,34.37
2023-05-21T14:46:13.038Z,34.42
2023-05-21T14:48:14.533Z,34.48
2023-05-21T14:50:16.158Z,34.28
2023-05-21T14:52:17.631Z,34.41
2023-05-21T14:54:19.687Z,34.36
2023-05-21T14:56:21.925Z,34.30
2023-05-21T14:58:23.811Z,34.22
2023-05-21T15:00:25.855Z,34.27
2023-05-21T15:02:27.552Z,34.48
2023-05-21T15:04:29.102Z,34.18
2023-05-21T15:06:30.761Z,34.31
2023-05-21T15:08:32.254Z,34.39
2023-05-21T15:10:33.829Z,34.36
2023-05-21T15:12:35.344Z,34.37
2023-05-21T15:14:37.106Z,34.41
2023-05-21T15:16:38.643Z,34.27
2023-05-21T15:18:40.340Z,34.24
2023-05-21T15:20:41.936Z,34.61
2023-05-21T15:22:43.607Z,34.69
2023-05-21T15:24:45.077Z,34.63
2023-05-21T15:26:46.667Z,34.61
2023-05-21T15:28:48.237Z,34.69
2023-05-21T15:30:49.879Z,34.55
2023-05-21T15:32:51.430Z,34.78
2023-05-21T15:34:52.948Z,34.61
2023-05-21T15:36:54.574Z,34.48
2023-05-21T15:38:56.060Z,34.57
2023-05-21T15:40:57.530Z,34.61
2023-05-21T15:42:59.131Z,34.64
2023-05-21T15:45:01.083Z,34.77
2023-05-21T15:47:02.608Z,34.82
2023-05-21T15:49:04.137Z,34.40
2023-05-21T15:51:05.662Z,34.58
2023-05-21T15:53:07.221Z,34.84
2023-05-21T15:55:09.029Z,34.59
2023-05-21T15:57:10.573Z,34.58
2023-05-21T15:59:13.152Z,34.50
2023-05-21T16:01:14.731Z,34.62
2023-05-21T16:03:16.574Z,34.52
2023-05-21T16:05:18.105Z,34.40
2023-05-21T16:07:19.613Z,34.59
2023-05-21T16:09:21.086Z,34.74
2023-05-21T16:11:22.868Z,34.58
2023-05-21T16:13:24.386Z,34.76
2023-05-21T16:15:28.440Z,34.87
2023-05-21T16:17:30.018Z,34.75
2023-05-21T16:19:31.533Z,34.83
2023-05-21T16:21:33.074Z,34.95
2023-05-21T16:23:34.550Z,34.99
2023-05-21T16:25:36.653Z,34.81
2023-05-21T16:27:38.561Z,34.86
2023-05-21T16:29:41.069Z,34.83
2023-05-21T16:31:42.805Z,34.61
2023-05-21T16:33:44.279Z,34.55
2023-05-21T16:35:46.077Z,34.68
2023-05-21T16:37:47.625Z,34.63
2023-05-21T16:39:49.162Z,34.78
2023-05-21T16:41:50.707Z,34.81
2023-05-21T16:43:54.274Z,34.80
2023-05-21T16:45:55.890Z,34.73
2023-05-21T16:47:57.566Z,34.89
2023-05-21T16:49:59.679Z,35.11
2023-05-21T16:52:01.629Z,35.22
2023-05-21T16:54:04.737Z,35.10
2023-05-21T16:56:06.432Z,35.07
2023-05-21T16:58:09.266Z,35.26
2023-05-21T17:00:11.254Z,35.23
2023-05-21T17:02:13.686Z,35.27
2023-05-21T17:04:15.597Z,34.95
2023-05-21T17:06:17.056Z,35.35
2023-05-21T17:08:18.608Z,35.34
2023-05-21T17:10:20.057Z,35.10
2023-05-21T17:12:21.501Z,35.27
2023-05-21T17:14:33.121Z,35.45
2023-05-21T17:16:35.692Z,35.27
2023-05-21T17:18:37.344Z,35.45
2023-05-21T17:20:38.925Z,35.34
2023-05-21T17:22:40.548Z,35.42
2023-05-21T17:24:42.186Z,35.43
2023-05-21T17:26:43.665Z,35.38
2023-05-21T17:28:45.346Z,35.43
2023-05-21T17:30:49.451Z,35.48
2023-05-21T17:32:51.489Z,35.48
2023-05-21T17:34:53.805Z,35.59
2023-05-21T17:36:55.500Z,35.67
2023-05-21T17:38:57.082Z,35.49
2023-05-21T17:40:59.220Z,35.53
2023-05-21T17:43:01.307Z,35.54
2023-05-21T17:45:03.072Z,35.71
2023-05-21T17:47:04.779Z,35.75
2023-05-21T17:49:08.203Z,35.72
2023-05-21T17:51:09.885Z,35.72
2023-05-21T17:53:12.953Z,35.69
2023-05-21T17:55:14.535Z,35.61
2023-05-21T17:57:17.797Z,35.64
2023-05-21T17:59:19.351Z,35.75
2023-05-21T18:01:21.265Z,35.54
2023-05-21T18:03:22.788Z,35.65
2023-05-21T18:05:24.275Z,35.73
2023-05-21T18:07:25.929Z,35.77
2023-05-21T18:09:27.434Z,35.56
2023-05-21T18:11:29.489Z,36.04
2023-05-21T18:13:31.264Z,35.75
2023-05-21T18:15:33.523Z,35.78
2023-05-21T18:17:34.998Z,35.72
2023-05-21T18:19:36.563Z,35.89
2023-05-21T18:21:38.218Z,35.93
2023-05-21T18:23:39.762Z,36.02
2023-05-21T18:25:41.265Z,36.07
2023-05-21T18:27:42.788Z,36.04
2023-05-21T18:29:44.277Z,36.19
2023-05-21T18:31:45.938Z,36.22
2023-05-21T18:33:47.597Z,36.11
2023-05-21T18:35:49.052Z,36.25
2023-05-21T18:37:50.588Z,36.06
2023-05-21T18:39:52.365Z,36.32
2023-05-21T18:42:08.911Z,36.52
2023-05-21T18:44:14.069Z,36.50
2023-05-21T18:46:15.660Z,36.34
2023-05-21T18:48:17.354Z,36.44
2023-05-21T18:50:19.543Z,36.55
2023-05-21T18:52:21.106Z,36.41
2023-05-21T18:54:22.525Z,36.41
2023-05-21T18:56:24.197Z,36.50
2023-05-21T18:58:25.905Z,36.78
2023-05-21T19:00:27.438Z,36.73
2023-05-21T19:02:29.937Z,36.81
2023-05-21T19:04:31.626Z,37.04
2023-05-21T19:06:33.291Z,36.68
2023-05-21T19:08:34.920Z,36.81
2023-05-21T19:10:39.108Z,36.56
2023-05-21T19:12:42.429Z,36.88
2023-05-21T19:14:45.055Z,36.86
2023-05-21T19:16:46.831Z,36.86
2023-05-21T19:18:48.336Z,36.86
2023-05-21T19:20:49.884Z,36.98
2023-05-21T19:22:51.571Z,36.78
2023-05-21T19:24:53.258Z,36.92
2023-05-21T19:26:54.762Z,36.94
2023-05-21T19:28:56.593Z,37.00
2023-05-21T19:30:58.093Z,37.12
2023-05-21T19:32:59.652Z,36.93
2023-05-21T19:35:01.905Z,37.10
2023-05-21T19:37:03.873Z,37.12
2023-05-21T19:39:05.589Z,36.99
2023-05-21T19:41:07.109Z,36.97
2023-05-21T19:43:08.601Z,37.03
2023-05-21T19:45:11.568Z,36.94
2023-05-21T19:47:13.172Z,37.03
2023-05-21T19:49:15.874Z,37.29
2023-05-21T19:51:17.532Z,37.14
2023-05-21T19:53:18.997Z,36.92
2023-05-21T19:55:20.637Z,37.12
2023-05-21T19:57:22.110Z,37.12
2023-05-21T19:59:23.629Z,37.19
2023-05-21T20:01:25.387Z,37.05
2023-05-21T20:03:28.016Z,37.01
2023-05-21T20:05:30.052Z,37.18
2023-05-21T20:07:31.694Z,37.04
2023-05-21T20:09:33.159Z,37.00
2023-05-21T20:11:36.045Z,37.15
2023-05-21T20:13:37.518Z,37.08
2023-05-21T20:15:39.022Z,37.05
2023-05-21T20:17:43.553Z,37.25
2023-05-21T20:19:49.129Z,37.22
2023-05-21T20:21:51.105Z,37.31
2023-05-21T20:23:53.423Z,37.15
2023-05-21T20:25:54.946Z,37.06
2023-05-21T20:28:03.643Z,36.85
2023-05-21T20:30:06.612Z,37.12
2023-05-21T20:32:08.270Z,37.03
2023-05-21T20:34:12.160Z,37.16
2023-05-21T20:36:15.362Z,37.30
2023-05-21T20:38:21.036Z,37.18
2023-05-21T20:40:22.744Z,37.38
2023-05-21T20:42:28.588Z,37.26
2023-05-21T20:44:30.156Z,37.16
2023-05-21T20:46:32.509Z,37.28
2023-05-21T20:48:34.011Z,36.96
2023-05-21T20:50:37.317Z,37.18
2023-05-21T20:52:39.182Z,37.31
2023-05-21T20:54:42.653Z,37.11
2023-05-21T20:56:44.989Z,37.02
2023-05-21T20:58:49.580Z,37.13
2023-05-21T21:00:51.799Z,37.01
2023-05-21T21:02:53.488Z,37.02
2023-05-21T21:04:56.463Z,37.14
2023-05-21T21:07:00.205Z,36.90
2023-05-21T21:09:01.717Z,36.95
2023-05-21T21:11:03.559Z,36.79
2023-05-21T21:13:06.961Z,36.89
2023-05-21T21:15:08.995Z,36.89
2023-05-21T21:17:10.761Z,37.03
2023-05-21T21:19:12.394Z,37.04
2023-05-21T21:21:13.915Z,36.98
2023-05-21T21:23:16.324Z,37.05
2023-05-21T21:25:17.891Z,36.85
2023-05-21T21:27:19.402Z,36.66
2023-05-21T21:29:20.820Z,36.75
2023-05-21T21:31:22.358Z,36.86
2023-05-21T21:33:26.748Z,36.69
2023-05-21T21:35:28.368Z,36.83
2023-05-21T21:37:29.916Z,36.87
2023-05-21T21:39:31.368Z,36.75
2023-05-21T21:41:33.027Z,36.71
2023-05-21T21:43:34.742Z,36.78
2023-05-21T21:45:36.409Z,36.18
2023-05-21T21:47:38.090Z,36.40
2023-05-21T21:49:40.052Z,36.66
2023-05-21T21:51:41.777Z,36.54
2023-05-21T21:53:43.350Z,36.52
2023-05-21T21:55:45.335Z,36.54
2023-05-21T21:57:46.766Z,36.48
2023-05-21T21:59:48.255Z,36.25
2023-05-21T22:01:49.824Z,36.23
2023-05-21T22:03:51.353Z,36.30
2023-05-21T22:05:55.018Z,36.10
2023-05-21T22:07:56.679Z,36.39
2023-05-21T22:09:58.220Z,36.21
2023-05-21T22:11:59.804Z,36.24
2023-05-21T22:14:01.236Z,36.05
2023-05-21T22:16:02.680Z,36.21
2023-05-21T22:18:04.307Z,36.12
2023-05-21T22:20:06.925Z,36.05
2023-05-21T22:22:10.033Z,36.08
2023-05-21T22:24:24.258Z,35.93
2023-05-21T22:26:32.796Z,35.78
2023-05-21T22:28:34.338Z,35.71
2023-05-21T22:30:37.742Z,35.92
2023-05-21T22:32:39.761Z,35.99
2023-05-21T22:34:42.174Z,35.88
2023-05-21T22:36:44.700Z,35.91
2023-05-21T22:38:46.238Z,35.60
2023-05-21T22:40:47.735Z,35.78
2023-05-21T22:42:49.375Z,35.85
2023-05-21T22:44:51.100Z,35.55
2023-05-21T22:46:52.706Z,35.81
2023-05-21T22:48:54.282Z,35.63
2023-05-21T22:50:58.161Z,35.90
2023-05-21T22:53:00.160Z,35.59
2023-05-21T22:55:01.655Z,35.67
2023-05-21T22:57:03.842Z,35.58
2023-05-21T22:59:05.580Z,35.38
2023-05-21T23:01:07.119Z,35.54
2023-05-21T23:03:08.856Z,35.69
2023-05-21T23:05:10.471Z,35.42
2023-05-21T23:07:12.444Z,35.56
2023-05-21T23:09:14.134Z,35.54
2023-05-21T23:11:15.787Z,35.63
2023-05-21T23:13:17.383Z,35.45
2023-05-21T23:15:18.936Z,35.44
2023-05-21T23:17:20.571Z,35.45
2023-05-21T23:19:22.156Z,35.18
2023-05-21T23:21:24.004Z,35.31
2023-05-21T23:23:25.720Z,35.15
2023-05-21T23:25:27.180Z,35.28
2023-05-21T23:27:29.372Z,35.30
2023-05-21T23:29:31.081Z,35.23
2023-05-21T23:31:32.894Z,35.33
2023-05-21T23:33:37.446Z,35.15
2023-05-21T23:35:38.928Z,35.22
2023-05-21T23:37:40.484Z,35.16
2023-05-21T23:39:43.589Z,35.23
2023-05-21T23:41:45.208Z,34.84
2023-05-21T23:43:46.827Z,35.13
2023-05-21T23:45:48.279Z,35.09
2023-05-21T23:47:49.800Z,35.10
2023-05-21T23:49:51.798Z,34.90
2023-05-21T23:51:53.418Z,35.08
2023-05-21T23:53:54.953Z,34.87
2023-05-21T23:55:56.391Z,34.85
2023-05-21T23:57:57.869Z,35.04
2023-05-21T23:59:59.346Z,34.88
